Pagina principală
METAR-TAF:

METAR-TAF

Aeroporturi :

Providencia Island, Columbia

Latitudine: 13-22N, longitudine: 081-21W, elevație: 6 m

Observații meteo curente

Raportul a fost făcut în urmă cu 5 ore și 1 de minute, la 23:00 UTC
Vânt 4 kt din direcții variabile
Temperatură 29°C
Umiditate 79%
Presiune 1013 hPa
Vizibilitate de 10 km sau mai mult
Nori împrăștiați la o înălțime de 1700 picior

METAR: SKPV 132300Z VRB04KT 9999 SCT017 29/25 Q1013

Ora: 23:01 (04:01 UTC)


TAF: lipsă

Observații și prognoze meteo pentru peste 4.000 de aeroporturi (rapoarte METAR și TAF).

Stațiile disponibile sunt reprezentate pe hartă prin puncte galbene și roșii.

Țineți indicatorul mouse-ului pe punctul dorit pentru a vedea denumirea stației.

Apoi, faceți clic pentru a vedea observațiile și prognozele meteorologice.

Pentru a schimba harta: Pentru mărire, faceți clic pe butoanele verzi cu cruce neagră; pentru micșorare, pe butonul verde cu o liniuță; pentru hărți învecinate, pe săgețile verzi.


METAR-TAF: